Mertens, Texas
Current Conditions -  °F | °C
As of 1:55 PM on Sunday 23 Nov 2014 (Local Time) from KINJ Reporting Station
Clear Clear  
Wind Chill: 75°   Ceiling: Unl
Heat Index: 75°   Visibility: 10mi
Dew Point: 43°   Wind: 22mph
Humidity: 32%   Direction: 240°WSW
Pressure: 29.45"   Gusts: NA
Location:  32.06°N, 96.9°W
Report Text: KINJ 231955Z AUTO 24019KT 10SM CLR 24/06 A2945 RMK AO2 T02410062
Loading
Personal Weather Stations






























Interactive Weather Map New forecast layout! Learn more

10-Day Weather Forecast

Advertisements
Track Severe Weather on mobile